createdAt,value
2024-03-05T00:00:51.086Z,87.68
2024-03-05T00:01:52.645Z,87.78
2024-03-05T00:02:54.184Z,88.24
2024-03-05T00:03:55.992Z,88.14
2024-03-05T00:04:57.653Z,87.63
2024-03-05T00:05:59.681Z,88.04
2024-03-05T00:07:01.266Z,88.23
2024-03-05T00:08:04.116Z,88.28
2024-03-05T00:09:06.490Z,88.38
2024-03-05T00:10:11.296Z,88.64
2024-03-05T00:11:13.045Z,88.70
2024-03-05T00:12:14.785Z,88.83
2024-03-05T00:13:16.459Z,88.86
2024-03-05T00:14:18.146Z,89.17
2024-03-05T00:15:19.821Z,89.34
2024-03-05T00:16:21.508Z,88.97
2024-03-05T00:17:24.912Z,89.47
2024-03-05T00:18:26.463Z,88.71
2024-03-05T00:19:28.110Z,88.78
2024-03-05T00:20:29.784Z,88.96
2024-03-05T00:21:32.985Z,88.59
2024-03-05T00:22:34.581Z,88.39
2024-03-05T00:23:36.124Z,88.22
2024-03-05T00:24:37.674Z,87.73
2024-03-05T00:25:40.105Z,87.70
2024-03-05T00:26:41.709Z,87.84
2024-03-05T00:27:43.997Z,87.92
2024-03-05T00:28:46.315Z,88.41
2024-03-05T00:29:49.078Z,88.05
2024-03-05T00:30:50.645Z,88.03
2024-03-05T00:31:52.208Z,88.26
2024-03-05T00:32:53.834Z,89.00
2024-03-05T00:33:56.793Z,88.49
2024-03-05T00:34:58.442Z,88.92
2024-03-05T00:35:59.972Z,88.70
2024-03-05T00:37:01.522Z,88.56
2024-03-05T00:38:06.508Z,88.50
2024-03-05T00:39:11.042Z,88.65
2024-03-05T00:40:12.860Z,88.49
2024-03-05T00:41:14.631Z,88.67
2024-03-05T00:42:16.847Z,89.18
2024-03-05T00:43:18.443Z,88.66
2024-03-05T00:44:20.004Z,88.71
2024-03-05T00:45:22.993Z,88.64
2024-03-05T00:46:26.185Z,89.08
2024-03-05T00:47:29.518Z,89.21
2024-03-05T00:48:31.073Z,89.05
2024-03-05T00:49:33.597Z,89.25
2024-03-05T00:50:35.936Z,89.61
2024-03-05T00:51:37.703Z,89.97
2024-03-05T00:52:39.292Z,90.28
2024-03-05T00:53:40.859Z,91.11
2024-03-05T00:54:42.403Z,91.40
2024-03-05T00:55:44.009Z,91.86
2024-03-05T00:56:46.660Z,92.29
2024-03-05T00:57:48.199Z,92.84
2024-03-05T00:58:51.476Z,93.09
2024-03-05T00:59:54.732Z,94.08
2024-03-05T01:00:56.392Z,94.63
2024-03-05T01:01:58.728Z,95.20
2024-03-05T01:03:00.358Z,95.73
2024-03-05T01:04:01.868Z,95.53
2024-03-05T01:05:06.568Z,95.99
2024-03-05T01:06:08.538Z,96.41
2024-03-05T01:07:11.323Z,96.30
2024-03-05T01:08:13.741Z,96.35
2024-03-05T01:09:19.322Z,95.91
2024-03-05T01:10:21.096Z,95.91
2024-03-05T01:11:22.800Z,95.97
2024-03-05T01:12:24.332Z,96.14
2024-03-05T01:13:28.149Z,95.65
2024-03-05T01:14:29.753Z,95.54
2024-03-05T01:15:31.696Z,95.58
2024-03-05T01:16:33.281Z,95.51
2024-03-05T01:17:34.921Z,95.40
2024-03-05T01:18:38.092Z,95.38
2024-03-05T01:19:39.729Z,95.58
2024-03-05T01:20:42.927Z,95.08
2024-03-05T01:21:44.551Z,95.26
2024-03-05T01:22:48.221Z,95.45
2024-03-05T01:23:49.986Z,95.25
2024-03-05T01:24:51.967Z,95.82
2024-03-05T01:25:53.967Z,96.06
2024-03-05T01:26:55.574Z,96.03
2024-03-05T01:27:59.140Z,96.68
2024-03-05T01:29:00.798Z,96.75
2024-03-05T01:30:02.437Z,96.99
2024-03-05T01:31:04.206Z,97.26
2024-03-05T01:32:06.190Z,98.03
2024-03-05T01:33:10.828Z,97.91
2024-03-05T01:34:12.666Z,97.85
2024-03-05T01:35:14.413Z,98.47
2024-03-05T01:36:17.121Z,99.02
2024-03-05T01:37:18.760Z,98.94
2024-03-05T01:38:21.634Z,98.98
2024-03-05T01:39:23.768Z,99.34
2024-03-05T01:40:25.969Z,99.51
2024-03-05T01:41:30.893Z,99.62
2024-03-05T01:42:33.865Z,99.44
2024-03-05T01:43:35.444Z,99.30
2024-03-05T01:44:37.060Z,99.59
2024-03-05T01:45:38.622Z,99.80
2024-03-05T01:46:41.310Z,99.60
2024-03-05T01:47:43.656Z,99.81
2024-03-05T01:48:45.928Z,99.76
2024-03-05T01:49:47.603Z,99.99
2024-03-05T01:50:49.274Z,100.00
2024-03-05T01:51:52.281Z,99.73
2024-03-05T01:52:54.263Z,99.91
2024-03-05T01:53:55.898Z,100.00
2024-03-05T01:55:11.250Z,100.00
2024-03-05T01:56:18.352Z,100.00
2024-03-05T01:57:22.747Z,100.00
2024-03-05T01:58:24.971Z,100.00
2024-03-05T01:59:26.973Z,100.00
2024-03-05T02:00:28.862Z,100.00
2024-03-05T02:01:32.233Z,100.00
2024-03-05T02:02:34.011Z,100.00
2024-03-05T02:03:36.874Z,100.00
2024-03-05T02:04:39.693Z,100.00
2024-03-05T02:05:44.191Z,100.00
2024-03-05T02:06:46.106Z,100.00
2024-03-05T02:07:48.624Z,100.00
2024-03-05T02:08:50.446Z,100.00
2024-03-05T02:09:55.224Z,100.00
2024-03-05T02:10:57.099Z,100.00
2024-03-05T02:11:59.915Z,99.73
2024-03-05T02:13:05.090Z,100.00
2024-03-05T02:14:06.658Z,100.00
2024-03-05T02:15:12.489Z,99.88
2024-03-05T02:16:14.944Z,100.00
2024-03-05T02:17:17.837Z,99.89
2024-03-05T02:18:19.547Z,99.82
2024-03-05T02:19:21.113Z,99.96
2024-03-05T02:20:22.763Z,99.77
2024-03-05T02:21:24.316Z,99.99
2024-03-05T02:22:25.952Z,99.50
2024-03-05T02:23:27.483Z,100.00
2024-03-05T02:24:29.594Z,99.79
2024-03-05T02:25:34.066Z,99.93
2024-03-05T02:26:35.739Z,100.00
2024-03-05T02:27:38.553Z,100.00
2024-03-05T02:28:40.875Z,100.00
2024-03-05T02:29:43.017Z,100.00
2024-03-05T02:30:45.131Z,99.88
2024-03-05T02:31:46.777Z,100.00
2024-03-05T02:32:48.499Z,99.98
2024-03-05T02:33:50.227Z,99.73
2024-03-05T02:34:55.486Z,99.74
2024-03-05T02:36:00.720Z,99.52
2024-03-05T02:37:02.362Z,99.54
2024-03-05T02:38:07.256Z,99.48
2024-03-05T02:39:08.984Z,98.92
2024-03-05T02:40:11.805Z,98.90
2024-03-05T02:41:13.436Z,98.77
2024-03-05T02:42:15.170Z,98.66
2024-03-05T02:43:18.917Z,98.37
2024-03-05T02:44:20.467Z,98.42
2024-03-05T02:45:22.073Z,98.15
2024-03-05T02:46:25.905Z,98.44
2024-03-05T02:47:27.561Z,98.59
2024-03-05T02:48:29.163Z,98.42
2024-03-05T02:49:30.783Z,98.57
2024-03-05T02:50:32.372Z,98.33
2024-03-05T02:51:33.945Z,98.35
2024-03-05T02:52:40.224Z,98.13
2024-03-05T02:53:42.127Z,98.08
2024-03-05T02:54:43.791Z,97.82
2024-03-05T02:55:45.623Z,97.91
2024-03-05T02:56:47.236Z,98.03
2024-03-05T02:57:48.843Z,97.59
2024-03-05T02:58:50.455Z,97.52
2024-03-05T02:59:55.315Z,97.68
2024-03-05T03:00:57.079Z,98.05
2024-03-05T03:01:58.704Z,97.18
2024-03-05T03:03:00.835Z,97.37
2024-03-05T03:04:02.344Z,97.61
2024-03-05T03:05:04.148Z,97.52
2024-03-05T03:06:05.874Z,97.55
2024-03-05T03:07:08.619Z,97.62
2024-03-05T03:08:10.188Z,97.67
2024-03-05T03:09:11.839Z,97.72
2024-03-05T03:10:13.880Z,98.43
2024-03-05T03:11:16.959Z,99.13
2024-03-05T03:12:18.549Z,99.03
2024-03-05T03:13:20.182Z,99.26
2024-03-05T03:14:22.487Z,99.10
2024-03-05T03:15:26.730Z,98.83
2024-03-05T03:16:28.711Z,99.47
2024-03-05T03:17:33.475Z,99.98
2024-03-05T03:18:37.214Z,100.00
2024-03-05T03:19:38.831Z,100.00
2024-03-05T03:20:41.083Z,100.00
2024-03-05T03:21:43.105Z,100.00
2024-03-05T03:22:46.647Z,100.00
2024-03-05T03:23:48.191Z,100.00
2024-03-05T03:24:49.816Z,100.00
2024-03-05T03:25:51.571Z,100.00
2024-03-05T03:26:53.600Z,100.00
2024-03-05T03:27:55.215Z,99.81
2024-03-05T03:28:57.079Z,100.00
2024-03-05T03:29:59.256Z,100.00
2024-03-05T03:31:01.616Z,100.00
2024-03-05T03:32:05.495Z,100.00
2024-03-05T03:33:07.135Z,100.00
2024-03-05T03:34:08.755Z,100.00
2024-03-05T03:35:11.181Z,100.00
2024-03-05T03:36:22.556Z,100.00
2024-03-05T03:37:24.080Z,100.00
2024-03-05T03:38:25.564Z,100.00
2024-03-05T03:39:27.053Z,100.00
2024-03-05T03:40:34.459Z,100.00
2024-03-05T03:41:36.062Z,100.00
2024-03-05T03:42:37.504Z,100.00
2024-03-05T03:43:39.154Z,100.00
2024-03-05T03:44:40.889Z,100.00
2024-03-05T03:45:42.672Z,100.00
2024-03-05T03:46:44.795Z,100.00
2024-03-05T03:47:47.425Z,100.00
2024-03-05T03:48:49.991Z,100.00
2024-03-05T03:49:52.193Z,100.00
2024-03-05T03:50:54.133Z,100.00
2024-03-05T03:51:55.721Z,100.00
2024-03-05T03:52:57.241Z,100.00
2024-03-05T03:53:58.840Z,100.00
2024-03-05T03:55:00.425Z,100.00
2024-03-05T03:56:01.870Z,100.00
2024-03-05T03:57:03.460Z,100.00
2024-03-05T03:58:05.098Z,100.00
2024-03-05T03:59:06.563Z,100.00
2024-03-05T04:00:10.997Z,100.00
2024-03-05T04:01:12.489Z,100.00
2024-03-05T04:02:13.925Z,100.00
2024-03-05T04:03:16.324Z,100.00
2024-03-05T04:04:17.836Z,100.00
2024-03-05T04:05:19.320Z,100.00
2024-03-05T04:06:20.754Z,100.00
2024-03-05T04:07:25.047Z,100.00
2024-03-05T04:08:26.987Z,100.00
2024-03-05T04:09:28.862Z,100.00
2024-03-05T04:10:30.301Z,100.00
2024-03-05T04:11:32.894Z,100.00
2024-03-05T04:12:34.767Z,100.00
2024-03-05T04:13:36.317Z,100.00
2024-03-05T04:14:37.860Z,100.00
2024-03-05T04:15:39.269Z,100.00
2024-03-05T04:16:41.726Z,100.00
2024-03-05T04:17:45.762Z,100.00
2024-03-05T04:18:47.391Z,100.00
2024-03-05T04:19:49.867Z,100.00
2024-03-05T04:20:51.369Z,100.00
2024-03-05T04:21:52.957Z,100.00
2024-03-05T04:22:54.500Z,100.00
2024-03-05T04:23:55.994Z,100.00
2024-03-05T04:24:58.229Z,100.00
2024-03-05T04:26:03.142Z,100.00
2024-03-05T04:27:05.625Z,100.00
2024-03-05T04:28:12.292Z,100.00
2024-03-05T04:29:21.008Z,100.00
2024-03-05T04:30:24.502Z,100.00
2024-03-05T04:31:37.553Z,100.00
2024-03-05T04:32:56.257Z,100.00
2024-03-05T04:34:04.017Z,100.00
2024-03-05T04:35:07.921Z,100.00
2024-03-05T04:36:10.470Z,100.00
2024-03-05T04:37:12.115Z,100.00
2024-03-05T04:38:13.676Z,100.00
2024-03-05T04:39:16.883Z,100.00
2024-03-05T04:40:18.574Z,100.00
2024-03-05T04:41:20.071Z,100.00
2024-03-05T04:42:23.587Z,100.00
2024-03-05T04:43:25.005Z,100.00
2024-03-05T04:44:29.937Z,100.00
2024-03-05T04:45:31.371Z,100.00
2024-03-05T04:46:32.869Z,100.00
2024-03-05T04:47:34.789Z,100.00
2024-03-05T04:48:36.377Z,100.00
2024-03-05T04:49:37.999Z,100.00
2024-03-05T04:50:39.468Z,100.00
2024-03-05T04:51:43.542Z,100.00
2024-03-05T04:52:45.340Z,100.00
2024-03-05T04:53:46.772Z,100.00
2024-03-05T04:54:48.253Z,100.00
2024-03-05T04:55:49.790Z,100.00
2024-03-05T04:56:51.251Z,100.00
2024-03-05T04:57:52.816Z,100.00
2024-03-05T04:58:54.585Z,100.00
2024-03-05T04:59:56.071Z,100.00
2024-03-05T05:00:57.714Z,100.00
2024-03-05T05:01:59.512Z,100.00
2024-03-05T05:03:01.035Z,100.00
2024-03-05T05:04:03.634Z,100.00
2024-03-05T05:05:05.164Z,100.00
2024-03-05T05:06:07.085Z,100.00
2024-03-05T05:07:08.794Z,100.00
2024-03-05T05:08:11.248Z,100.00
2024-03-05T05:09:14.145Z,100.00
2024-03-05T05:10:15.931Z,100.00
2024-03-05T05:11:17.762Z,100.00
2024-03-05T05:12:19.258Z,100.00
2024-03-05T05:13:21.649Z,100.00
2024-03-05T05:14:23.134Z,100.00
2024-03-05T05:15:25.062Z,100.00
2024-03-05T05:16:27.891Z,100.00
2024-03-05T05:17:30.151Z,100.00
2024-03-05T05:18:31.652Z,100.00
2024-03-05T05:19:33.123Z,100.00
2024-03-05T05:20:34.620Z,100.00
2024-03-05T05:21:36.902Z,100.00
2024-03-05T05:22:43.364Z,100.00
2024-03-05T05:23:45.122Z,100.00
2024-03-05T05:24:46.587Z,100.00
2024-03-05T05:25:48.621Z,100.00
2024-03-05T05:26:50.110Z,100.00
2024-03-05T05:27:51.966Z,100.00
2024-03-05T05:28:53.666Z,100.00
2024-03-05T05:29:58.706Z,100.00
2024-03-05T05:31:04.901Z,100.00
2024-03-05T05:32:08.612Z,100.00
2024-03-05T05:33:10.228Z,100.00
2024-03-05T05:34:11.809Z,100.00
2024-03-05T05:35:13.220Z,100.00
2024-03-05T05:36:15.317Z,100.00
2024-03-05T05:37:16.962Z,100.00
2024-03-05T05:38:18.521Z,100.00
2024-03-05T05:39:25.411Z,100.00
2024-03-05T05:40:26.911Z,100.00
2024-03-05T05:41:28.400Z,100.00
2024-03-05T05:42:29.860Z,100.00
2024-03-05T05:43:31.404Z,100.00
2024-03-05T05:44:32.869Z,100.00
2024-03-05T05:45:35.535Z,100.00
2024-03-05T05:46:37.107Z,100.00
2024-03-05T05:47:52.817Z,100.00
2024-03-05T05:48:55.746Z,100.00
2024-03-05T05:49:57.251Z,100.00
2024-03-05T05:51:02.107Z,100.00
2024-03-05T05:52:06.953Z,100.00
2024-03-05T05:53:09.926Z,100.00
2024-03-05T05:54:11.966Z,100.00
2024-03-05T05:55:16.700Z,100.00
2024-03-05T05:56:18.425Z,100.00
2024-03-05T05:57:19.912Z,100.00
2024-03-05T05:58:21.382Z,100.00
2024-03-05T05:59:22.873Z,100.00
2024-03-05T06:00:38.793Z,100.00
2024-03-05T06:01:40.992Z,100.00
2024-03-05T06:02:42.523Z,100.00
2024-03-05T06:03:47.142Z,100.00
2024-03-05T06:04:49.609Z,100.00
2024-03-05T06:05:51.066Z,100.00
2024-03-05T06:06:52.783Z,100.00
2024-03-05T06:07:55.046Z,100.00
2024-03-05T06:08:56.742Z,100.00
2024-03-05T06:09:58.167Z,100.00
2024-03-05T06:10:59.774Z,100.00
2024-03-05T06:12:02.646Z,100.00
2024-03-05T06:13:04.222Z,100.00
2024-03-05T06:14:08.062Z,100.00
2024-03-05T06:15:09.726Z,100.00
2024-03-05T06:16:11.367Z,100.00
2024-03-05T06:17:12.898Z,100.00
2024-03-05T06:18:14.352Z,100.00
2024-03-05T06:19:16.218Z,100.00
2024-03-05T06:20:17.727Z,100.00
2024-03-05T06:21:19.230Z,100.00
2024-03-05T06:22:27.095Z,100.00
2024-03-05T06:23:31.867Z,100.00
2024-03-05T06:24:33.318Z,100.00
2024-03-05T06:25:34.886Z,100.00
2024-03-05T06:26:37.754Z,100.00
2024-03-05T06:27:39.664Z,100.00
2024-03-05T06:28:41.267Z,100.00
2024-03-05T06:29:43.417Z,100.00
2024-03-05T06:30:47.339Z,100.00
2024-03-05T06:31:49.022Z,100.00
2024-03-05T06:32:52.850Z,100.00
2024-03-05T06:33:55.692Z,100.00
2024-03-05T06:34:57.341Z,100.00
2024-03-05T06:35:59.429Z,100.00
2024-03-05T06:37:02.607Z,100.00
2024-03-05T06:38:07.680Z,100.00
2024-03-05T06:39:19.425Z,100.00
2024-03-05T06:40:21.532Z,100.00
2024-03-05T06:41:26.317Z,100.00
2024-03-05T06:42:31.533Z,100.00
2024-03-05T06:43:34.608Z,100.00
2024-03-05T06:44:37.725Z,100.00
2024-03-05T06:45:39.295Z,100.00
2024-03-05T06:46:43.511Z,100.00
2024-03-05T06:48:07.198Z,100.00
2024-03-05T06:49:16.354Z,100.00
2024-03-05T06:50:21.040Z,100.00
2024-03-05T06:51:33.072Z,100.00
2024-03-05T06:52:53.211Z,100.00
2024-03-05T06:54:13.520Z,100.00
2024-03-05T06:55:33.534Z,100.00
2024-03-05T06:56:41.389Z,100.00
2024-03-05T06:57:43.365Z,100.00
2024-03-05T06:58:46.561Z,100.00
2024-03-05T06:59:50.917Z,100.00
2024-03-05T07:00:52.488Z,100.00
2024-03-05T07:01:56.105Z,100.00
2024-03-05T07:02:58.273Z,100.00
2024-03-05T07:03:59.722Z,100.00
2024-03-05T07:05:02.403Z,100.00
2024-03-05T07:06:08.327Z,100.00
2024-03-05T07:07:09.865Z,100.00
2024-03-05T07:08:11.340Z,100.00
2024-03-05T07:09:12.930Z,100.00
2024-03-05T07:10:22.640Z,100.00
2024-03-05T07:11:27.190Z,100.00
2024-03-05T07:12:31.431Z,100.00
2024-03-05T07:13:34.156Z,100.00
2024-03-05T07:14:36.708Z,100.00
2024-03-05T07:15:38.261Z,100.00
2024-03-05T07:16:39.709Z,100.00
2024-03-05T07:17:44.806Z,100.00
2024-03-05T07:18:48.857Z,100.00
2024-03-05T07:19:50.540Z,100.00
2024-03-05T07:20:52.100Z,100.00
2024-03-05T07:21:53.636Z,100.00
2024-03-05T07:22:55.748Z,100.00
2024-03-05T07:23:58.903Z,100.00
2024-03-05T07:25:00.361Z,100.00
2024-03-05T07:26:04.940Z,100.00
2024-03-05T07:27:09.342Z,100.00
2024-03-05T07:28:13.617Z,100.00
2024-03-05T07:29:15.159Z,100.00
2024-03-05T07:30:17.543Z,100.00
2024-03-05T07:31:20.319Z,100.00
2024-03-05T07:32:22.072Z,100.00
2024-03-05T07:33:23.791Z,100.00
2024-03-05T07:34:25.294Z,100.00
2024-03-05T07:35:27.012Z,100.00
2024-03-05T07:36:28.510Z,100.00
2024-03-05T07:37:29.966Z,100.00
2024-03-05T07:38:32.110Z,100.00
2024-03-05T07:39:33.623Z,100.00
2024-03-05T07:40:35.238Z,100.00
2024-03-05T07:41:37.368Z,100.00
2024-03-05T07:42:43.404Z,100.00
2024-03-05T07:43:45.155Z,100.00
2024-03-05T07:44:46.700Z,100.00
2024-03-05T07:45:50.548Z,100.00
2024-03-05T07:46:52.418Z,100.00
2024-03-05T07:47:53.987Z,100.00
2024-03-05T07:48:57.960Z,100.00
2024-03-05T07:49:59.710Z,100.00
2024-03-05T07:51:01.277Z,100.00
2024-03-05T07:52:03.328Z,100.00
2024-03-05T07:53:04.931Z,100.00
2024-03-05T07:54:06.393Z,100.00
2024-03-05T07:55:10.092Z,100.00
2024-03-05T07:56:11.529Z,100.00
2024-03-05T07:57:13.909Z,100.00
2024-03-05T07:58:15.330Z,100.00
2024-03-05T07:59:16.776Z,100.00
2024-03-05T08:00:21.839Z,100.00
2024-03-05T08:01:23.408Z,100.00
2024-03-05T08:02:26.488Z,100.00
2024-03-05T08:03:27.931Z,100.00
2024-03-05T08:04:29.717Z,100.00
2024-03-05T08:05:31.320Z,100.00
2024-03-05T08:06:32.913Z,100.00
2024-03-05T08:07:37.334Z,100.00
2024-03-05T08:08:38.870Z,100.00
2024-03-05T08:09:40.323Z,100.00
2024-03-05T08:10:41.852Z,100.00
2024-03-05T08:11:43.388Z,100.00
2024-03-05T08:12:46.402Z,100.00
2024-03-05T08:13:48.041Z,100.00
2024-03-05T08:14:49.501Z,100.00
2024-03-05T08:15:50.959Z,100.00
2024-03-05T08:16:52.468Z,100.00
2024-03-05T08:17:54.384Z,100.00
2024-03-05T08:18:55.868Z,100.00
2024-03-05T08:19:58.512Z,100.00
2024-03-05T08:21:02.396Z,100.00
2024-03-05T08:22:04.316Z,100.00
2024-03-05T08:23:05.754Z,100.00
2024-03-05T08:24:07.711Z,100.00
2024-03-05T08:25:14.001Z,100.00
2024-03-05T08:26:15.568Z,100.00
2024-03-05T08:27:17.205Z,100.00
2024-03-05T08:28:18.676Z,100.00
2024-03-05T08:29:20.121Z,100.00
2024-03-05T08:30:24.038Z,100.00
2024-03-05T08:31:27.037Z,100.00
2024-03-05T08:32:28.618Z,100.00
2024-03-05T08:33:30.216Z,100.00
2024-03-05T08:34:31.824Z,100.00
2024-03-05T08:35:33.387Z,100.00
2024-03-05T08:36:38.240Z,100.00
2024-03-05T08:37:41.862Z,100.00
2024-03-05T08:38:45.257Z,100.00
2024-03-05T08:39:46.674Z,100.00
2024-03-05T08:40:50.346Z,100.00
2024-03-05T08:41:51.966Z,100.00
2024-03-05T08:42:56.781Z,100.00
2024-03-05T08:43:58.339Z,100.00
2024-03-05T08:44:59.837Z,100.00
2024-03-05T08:46:02.042Z,100.00
2024-03-05T08:47:04.115Z,100.00
2024-03-05T08:48:05.854Z,100.00
2024-03-05T08:49:07.988Z,100.00
2024-03-05T08:50:09.628Z,100.00
2024-03-05T08:51:11.179Z,100.00
2024-03-05T08:52:13.899Z,100.00
2024-03-05T08:53:15.379Z,100.00
2024-03-05T08:54:18.155Z,100.00
2024-03-05T08:55:19.970Z,100.00
2024-03-05T08:56:21.560Z,100.00
2024-03-05T08:57:27.401Z,100.00
2024-03-05T08:58:29.732Z,100.00
2024-03-05T08:59:32.929Z,100.00
2024-03-05T09:00:42.092Z,100.00
2024-03-05T09:01:45.207Z,100.00
2024-03-05T09:02:47.265Z,100.00
2024-03-05T09:03:48.698Z,100.00
2024-03-05T09:04:52.561Z,100.00
2024-03-05T09:05:54.087Z,100.00
2024-03-05T09:06:55.863Z,100.00
2024-03-05T09:07:57.440Z,100.00
2024-03-05T09:08:59.297Z,100.00
2024-03-05T09:10:00.775Z,100.00
2024-03-05T09:11:02.266Z,100.00
2024-03-05T09:12:03.892Z,100.00
2024-03-05T09:13:05.791Z,100.00
2024-03-05T09:14:07.365Z,100.00
2024-03-05T09:15:10.063Z,100.00
2024-03-05T09:16:13.739Z,100.00
2024-03-05T09:17:15.228Z,100.00
2024-03-05T09:18:18.062Z,100.00
2024-03-05T09:19:21.325Z,100.00
2024-03-05T09:20:22.809Z,100.00
2024-03-05T09:21:24.520Z,100.00
2024-03-05T09:22:26.066Z,100.00
2024-03-05T09:23:27.509Z,100.00
2024-03-05T09:24:29.026Z,100.00
2024-03-05T09:25:31.478Z,100.00
2024-03-05T09:26:34.510Z,100.00
2024-03-05T09:27:38.868Z,100.00
2024-03-05T09:28:40.336Z,100.00
2024-03-05T09:29:43.183Z,100.00
2024-03-05T09:30:45.198Z,100.00
2024-03-05T09:31:47.908Z,100.00
2024-03-05T09:32:49.414Z,100.00
2024-03-05T09:33:50.989Z,100.00
2024-03-05T09:34:52.502Z,100.00
2024-03-05T09:35:54.023Z,100.00
2024-03-05T09:36:57.279Z,100.00
2024-03-05T09:37:58.993Z,100.00
2024-03-05T09:39:00.880Z,100.00
2024-03-05T09:40:02.691Z,100.00
2024-03-05T09:41:08.650Z,100.00
2024-03-05T09:42:11.137Z,100.00
2024-03-05T09:43:14.022Z,100.00
2024-03-05T09:44:16.135Z,100.00
2024-03-05T09:45:18.849Z,100.00
2024-03-05T09:46:21.612Z,100.00
2024-03-05T09:47:23.740Z,100.00
2024-03-05T09:48:25.232Z,100.00
2024-03-05T09:49:29.019Z,100.00
2024-03-05T09:50:35.203Z,100.00
2024-03-05T09:51:38.154Z,100.00
2024-03-05T09:52:39.835Z,100.00
2024-03-05T09:53:41.483Z,100.00
2024-03-05T09:54:44.794Z,100.00
2024-03-05T09:55:48.787Z,100.00
2024-03-05T09:56:53.760Z,100.00
2024-03-05T09:57:55.954Z,100.00
2024-03-05T09:58:59.346Z,100.00
2024-03-05T10:00:00.822Z,100.00
2024-03-05T10:01:03.387Z,100.00
2024-03-05T10:02:05.954Z,100.00
2024-03-05T10:03:09.758Z,100.00
2024-03-05T10:04:13.266Z,100.00
2024-03-05T10:05:17.287Z,100.00
2024-03-05T10:06:19.410Z,100.00
2024-03-05T10:07:27.450Z,100.00
2024-03-05T10:08:28.997Z,100.00
2024-03-05T10:09:31.597Z,100.00
2024-03-05T10:10:36.213Z,100.00
2024-03-05T10:11:38.634Z,100.00
2024-03-05T10:12:40.937Z,100.00
2024-03-05T10:13:42.545Z,100.00
2024-03-05T10:14:44.064Z,100.00
2024-03-05T10:15:45.537Z,100.00
2024-03-05T10:16:47.126Z,100.00
2024-03-05T10:17:54.147Z,100.00
2024-03-05T10:18:56.112Z,100.00
2024-03-05T10:19:57.695Z,100.00
2024-03-05T10:21:14.302Z,100.00
2024-03-05T10:22:15.750Z,100.00
2024-03-05T10:23:17.225Z,100.00
2024-03-05T10:24:28.426Z,100.00
2024-03-05T10:25:30.493Z,100.00
2024-03-05T10:26:33.180Z,100.00
2024-03-05T10:27:34.643Z,100.00
2024-03-05T10:28:36.329Z,100.00
2024-03-05T10:29:42.200Z,100.00
2024-03-05T10:30:47.307Z,100.00
2024-03-05T10:31:51.397Z,100.00
2024-03-05T10:32:53.757Z,100.00
2024-03-05T10:33:57.494Z,100.00
2024-03-05T10:35:00.812Z,100.00
2024-03-05T10:36:02.464Z,100.00
2024-03-05T10:37:05.415Z,100.00
2024-03-05T10:38:09.977Z,100.00
2024-03-05T10:39:13.884Z,100.00
2024-03-05T10:40:16.248Z,100.00
2024-03-05T10:41:22.810Z,100.00
2024-03-05T10:42:26.907Z,100.00
2024-03-05T10:43:34.292Z,100.00
2024-03-05T10:44:36.556Z,100.00
2024-03-05T10:45:39.497Z,100.00
2024-03-05T10:46:44.839Z,100.00
2024-03-05T10:47:47.412Z,100.00
2024-03-05T10:48:50.500Z,100.00
2024-03-05T10:49:51.990Z,100.00
2024-03-05T10:50:57.186Z,100.00
2024-03-05T10:51:59.487Z,100.00
2024-03-05T10:53:02.755Z,100.00
2024-03-05T10:54:05.959Z,100.00
2024-03-05T10:55:12.311Z,100.00
2024-03-05T10:56:14.549Z,100.00
2024-03-05T10:57:16.077Z,100.00
2024-03-05T10:58:17.490Z,100.00
2024-03-05T10:59:18.936Z,100.00
2024-03-05T11:00:25.160Z,100.00
2024-03-05T11:01:31.223Z,100.00
2024-03-05T11:02:34.076Z,100.00
2024-03-05T11:03:41.713Z,100.00
2024-03-05T11:04:46.125Z,100.00
2024-03-05T11:05:51.516Z,100.00
2024-03-05T11:06:56.704Z,100.00
2024-03-05T11:07:58.940Z,100.00
2024-03-05T11:09:00.858Z,100.00
2024-03-05T11:10:03.059Z,100.00
2024-03-05T11:11:09.919Z,100.00
2024-03-05T11:12:13.797Z,100.00
2024-03-05T11:13:15.775Z,100.00
2024-03-05T11:14:18.843Z,100.00
2024-03-05T11:15:22.528Z,100.00
2024-03-05T11:16:24.057Z,100.00
2024-03-05T11:17:26.396Z,100.00
2024-03-05T11:18:35.149Z,100.00
2024-03-05T11:19:42.774Z,100.00
2024-03-05T11:20:48.402Z,100.00
2024-03-05T11:21:49.912Z,100.00
2024-03-05T11:22:52.434Z,100.00
2024-03-05T11:23:53.950Z,100.00
2024-03-05T11:25:01.593Z,100.00
2024-03-05T11:26:04.964Z,100.00
2024-03-05T11:27:13.188Z,100.00
2024-03-05T11:28:17.842Z,100.00
2024-03-05T11:29:21.475Z,100.00
2024-03-05T11:30:23.685Z,100.00
2024-03-05T11:31:27.842Z,100.00
2024-03-05T11:32:29.969Z,100.00
2024-03-05T11:33:32.059Z,100.00
2024-03-05T11:34:36.657Z,100.00
2024-03-05T11:35:39.162Z,100.00
2024-03-05T11:36:41.116Z,100.00
2024-03-05T11:37:48.404Z,100.00
2024-03-05T11:39:08.661Z,100.00
2024-03-05T11:40:13.091Z,100.00
2024-03-05T11:41:23.707Z,100.00
2024-03-05T11:42:27.208Z,100.00
2024-03-05T11:43:38.038Z,100.00
2024-03-05T11:44:42.846Z,100.00
2024-03-05T11:45:47.665Z,100.00
2024-03-05T11:46:51.902Z,100.00
2024-03-05T11:47:57.034Z,100.00
2024-03-05T11:49:02.544Z,100.00
2024-03-05T11:50:04.726Z,100.00
2024-03-05T11:51:06.227Z,100.00
2024-03-05T11:52:07.656Z,100.00
2024-03-05T11:53:10.408Z,100.00
2024-03-05T11:54:15.903Z,100.00
2024-03-05T11:55:25.832Z,100.00
2024-03-05T11:56:27.306Z,100.00
2024-03-05T11:57:28.949Z,100.00
2024-03-05T11:58:30.511Z,100.00
2024-03-05T11:59:35.821Z,100.00
2024-03-05T12:00:37.848Z,100.00
2024-03-05T12:01:43.059Z,100.00
2024-03-05T12:02:44.851Z,100.00
2024-03-05T12:03:46.315Z,100.00
2024-03-05T12:04:50.443Z,100.00
2024-03-05T12:05:52.142Z,100.00
2024-03-05T12:07:07.793Z,100.00
2024-03-05T12:08:09.364Z,100.00
2024-03-05T12:09:19.377Z,100.00
2024-03-05T12:10:21.245Z,100.00
2024-03-05T12:11:22.852Z,100.00
2024-03-05T12:12:25.203Z,100.00
2024-03-05T12:13:28.479Z,100.00
2024-03-05T12:14:31.665Z,100.00
2024-03-05T12:15:34.310Z,100.00
2024-03-05T12:16:36.737Z,100.00
2024-03-05T12:17:38.268Z,100.00
2024-03-05T12:18:39.826Z,100.00
2024-03-05T12:19:41.800Z,100.00
2024-03-05T12:20:43.411Z,100.00
2024-03-05T12:21:44.890Z,100.00
2024-03-05T12:22:50.661Z,99.52
2024-03-05T12:23:52.190Z,99.51
2024-03-05T12:24:53.798Z,99.67
2024-03-05T12:25:55.271Z,100.00
2024-03-05T12:26:57.582Z,100.00
2024-03-05T12:28:00.723Z,100.00
2024-03-05T12:29:03.338Z,99.06
2024-03-05T12:30:07.593Z,98.55
2024-03-05T12:31:10.351Z,98.04
2024-03-05T12:32:12.445Z,97.45
2024-03-05T12:33:19.047Z,97.41
2024-03-05T12:34:21.827Z,96.35
2024-03-05T12:35:23.462Z,96.09
2024-03-05T12:36:25.032Z,95.55
2024-03-05T12:37:27.819Z,95.46
2024-03-05T12:38:33.193Z,96.30
2024-03-05T12:39:34.791Z,95.88
2024-03-05T12:40:36.362Z,95.34
2024-03-05T12:41:41.918Z,94.91
2024-03-05T12:42:47.525Z,94.69
2024-03-05T12:43:52.794Z,93.50
2024-03-05T12:45:04.584Z,93.43
2024-03-05T12:46:07.626Z,94.24
2024-03-05T12:47:15.128Z,94.73
2024-03-05T12:48:26.011Z,94.75
2024-03-05T12:49:30.617Z,94.84
2024-03-05T12:50:32.384Z,95.12
2024-03-05T12:51:33.943Z,94.91
2024-03-05T12:52:35.859Z,94.04
2024-03-05T12:53:37.454Z,93.70
2024-03-05T12:54:39.081Z,94.30
2024-03-05T12:55:41.424Z,93.42
2024-03-05T12:56:44.026Z,94.10
2024-03-05T12:57:46.266Z,93.89
2024-03-05T12:58:47.786Z,94.22
2024-03-05T12:59:49.240Z,94.81
2024-03-05T13:00:50.747Z,95.09
2024-03-05T13:01:55.204Z,95.08
2024-03-05T13:02:57.307Z,95.23
2024-03-05T13:04:01.234Z,94.89
2024-03-05T13:05:03.641Z,95.52
2024-03-05T13:06:05.452Z,95.51
2024-03-05T13:07:06.927Z,95.10
2024-03-05T13:08:08.610Z,95.07
2024-03-05T13:09:11.695Z,95.18
2024-03-05T13:10:13.280Z,94.75
2024-03-05T13:11:14.871Z,94.89
2024-03-05T13:12:16.578Z,94.19
2024-03-05T13:13:18.065Z,94.97